createdAt,value
2023-06-04T00:01:26.928Z,10.21
2023-06-04T00:06:31.419Z,10.33
2023-06-04T00:11:37.884Z,10.18
2023-06-04T00:16:42.137Z,10.36
2023-06-04T00:21:47.638Z,9.19
2023-06-04T00:26:53.234Z,9.76
2023-06-04T00:31:57.433Z,9.59
2023-06-04T00:37:02.682Z,9.31
2023-06-04T00:42:08.782Z,9.19
2023-06-04T00:47:13.683Z,8.83
2023-06-04T00:52:18.510Z,8.62
2023-06-04T00:57:24.385Z,8.25
2023-06-04T01:02:31.270Z,8.74
2023-06-04T01:07:36.849Z,8.68
2023-06-04T01:12:43.210Z,8.33
2023-06-04T01:17:52.795Z,8.23
2023-06-04T01:23:16.398Z,7.74
2023-06-04T01:28:22.943Z,8.06
2023-06-04T01:33:27.635Z,7.99
2023-06-04T01:38:31.974Z,8.00
2023-06-04T01:43:37.544Z,9.02
2023-06-04T01:48:42.086Z,8.90
2023-06-04T01:53:46.204Z,9.25
2023-06-04T01:58:51.918Z,8.90
2023-06-04T02:03:56.240Z,8.57
2023-06-04T02:09:01.796Z,8.84
2023-06-04T02:14:07.515Z,8.16
2023-06-04T02:19:14.026Z,8.33
2023-06-04T02:24:18.109Z,8.55
2023-06-04T02:29:23.815Z,8.62
2023-06-04T02:34:28.180Z,8.82
2023-06-04T02:39:32.506Z,8.39
2023-06-04T02:44:37.931Z,8.58
2023-06-04T02:49:42.140Z,9.18
2023-06-04T02:54:46.320Z,9.26
2023-06-04T02:59:53.155Z,9.14
2023-06-04T03:04:57.210Z,8.75
2023-06-04T03:10:01.177Z,8.83
2023-06-04T03:15:08.303Z,9.42
2023-06-04T03:20:12.751Z,9.67
2023-06-04T03:25:17.087Z,9.42
2023-06-04T03:30:23.020Z,9.21
2023-06-04T03:35:36.791Z,10.07
2023-06-04T03:40:41.201Z,9.59
2023-06-04T03:45:48.088Z,9.42
2023-06-04T03:50:52.479Z,8.77
2023-06-04T03:55:56.881Z,10.12
2023-06-04T04:01:02.647Z,9.75
2023-06-04T04:06:06.924Z,9.87
2023-06-04T04:11:11.244Z,9.39
2023-06-04T04:16:17.475Z,9.42
2023-06-04T04:21:22.116Z,9.43
2023-06-04T04:26:28.922Z,9.69
2023-06-04T04:31:37.676Z,10.53
2023-06-04T04:36:42.622Z,11.44
2023-06-04T04:41:48.063Z,10.91
2023-06-04T04:46:53.818Z,10.95
2023-06-04T04:51:58.195Z,10.90
2023-06-04T04:57:13.417Z,12.26
2023-06-04T05:02:22.557Z,12.59
2023-06-04T05:07:27.566Z,12.52
2023-06-04T05:12:33.141Z,13.36
2023-06-04T05:17:41.829Z,13.41
2023-06-04T05:22:48.626Z,13.04
2023-06-04T05:27:55.734Z,12.50
2023-06-04T05:33:02.367Z,12.95
2023-06-04T05:38:07.701Z,13.26
2023-06-04T05:43:11.894Z,13.66
2023-06-04T05:48:18.006Z,14.71
2023-06-04T05:53:22.465Z,14.98
2023-06-04T05:58:28.761Z,14.21
2023-06-04T06:03:34.531Z,14.01
2023-06-04T06:08:38.708Z,14.73
2023-06-04T06:13:43.335Z,14.36
2023-06-04T06:18:51.625Z,14.63
2023-06-04T06:23:56.278Z,15.13
2023-06-04T06:29:00.869Z,15.54
2023-06-04T06:34:08.884Z,15.65
2023-06-04T06:39:13.288Z,15.55
2023-06-04T06:44:17.357Z,15.65
2023-06-04T06:49:22.972Z,15.89
2023-06-04T06:54:27.172Z,16.25
2023-06-04T06:59:31.289Z,16.45
2023-06-04T07:04:37.412Z,16.13
2023-06-04T07:09:41.598Z,16.43
2023-06-04T07:14:48.215Z,16.09
2023-06-04T07:19:55.027Z,17.07
2023-06-04T07:24:59.055Z,17.29
2023-06-04T07:30:03.358Z,16.86
2023-06-04T07:35:10.378Z,17.41
2023-06-04T07:40:14.583Z,17.77
2023-06-04T07:45:18.909Z,17.08
2023-06-04T07:50:24.586Z,16.94
2023-06-04T07:55:28.529Z,17.65
2023-06-04T08:00:32.934Z,17.32
2023-06-04T08:05:38.501Z,17.64
2023-06-04T08:10:42.763Z,17.81
2023-06-04T08:15:47.008Z,18.06
2023-06-04T08:20:52.574Z,18.28
2023-06-04T08:25:56.783Z,18.52
2023-06-04T08:31:01.553Z,18.91
2023-06-04T08:36:07.960Z,18.30
2023-06-04T08:41:17.426Z,18.27
2023-06-04T08:46:22.912Z,18.56
2023-06-04T08:51:28.332Z,18.28
2023-06-04T08:56:33.962Z,19.10
2023-06-04T09:01:42.093Z,18.48
2023-06-04T09:06:50.133Z,18.62
2023-06-04T09:11:55.516Z,19.04
2023-06-04T09:17:00.372Z,19.27
2023-06-04T09:22:06.394Z,19.27
2023-06-04T09:27:14.885Z,19.72
2023-06-04T09:32:23.664Z,20.46
2023-06-04T09:37:29.310Z,20.61
2023-06-04T09:42:33.133Z,20.51
2023-06-04T09:47:42.341Z,20.52
2023-06-04T09:52:47.877Z,20.23
2023-06-04T09:57:52.603Z,20.79
2023-06-04T10:02:59.894Z,20.86
2023-06-04T10:08:08.730Z,20.36
2023-06-04T10:13:19.461Z,20.58
2023-06-04T10:18:23.950Z,20.65
2023-06-04T10:23:30.615Z,21.43
2023-06-04T10:28:36.142Z,21.59
2023-06-04T10:33:41.442Z,21.12
2023-06-04T10:38:49.520Z,21.14
2023-06-04T10:44:02.440Z,21.86
2023-06-04T10:49:06.553Z,21.15
2023-06-04T10:54:12.091Z,22.40
2023-06-04T10:59:18.594Z,22.43
2023-06-04T11:04:26.718Z,22.56
2023-06-04T11:09:34.570Z,22.52
2023-06-04T11:14:39.095Z,23.42
2023-06-04T11:19:43.629Z,26.01
2023-06-04T11:24:49.754Z,27.26
2023-06-04T11:29:55.145Z,27.97
2023-06-04T11:35:09.070Z,27.44
2023-06-04T11:40:21.772Z,24.19
2023-06-04T11:45:26.912Z,25.87
2023-06-04T11:50:31.408Z,27.36
2023-06-04T11:55:39.725Z,29.03
2023-06-04T12:00:44.398Z,27.63
2023-06-04T12:05:48.628Z,25.49
2023-06-04T12:10:54.035Z,27.05
2023-06-04T12:15:58.247Z,26.10
2023-06-04T12:21:02.352Z,26.27
2023-06-04T12:26:08.480Z,25.72
2023-06-04T12:31:19.246Z,28.37
2023-06-04T12:36:23.562Z,28.16
2023-06-04T12:41:29.281Z,28.50
2023-06-04T12:46:34.676Z,28.66
2023-06-04T12:51:39.691Z,28.76
2023-06-04T12:56:46.094Z,29.67
2023-06-04T13:01:50.484Z,30.41
2023-06-04T13:07:00.102Z,31.45
2023-06-04T13:12:07.268Z,31.42
2023-06-04T13:17:22.158Z,30.32
2023-06-04T13:22:27.476Z,32.44
2023-06-04T13:27:33.047Z,31.13
2023-06-04T13:32:37.220Z,29.27
2023-06-04T13:37:41.180Z,27.56
2023-06-04T13:42:48.195Z,25.95
2023-06-04T13:47:54.425Z,25.19
2023-06-04T13:52:59.430Z,25.01
2023-06-04T13:58:05.014Z,24.88
2023-06-04T14:03:09.395Z,25.24
2023-06-04T14:08:16.427Z,28.78
2023-06-04T14:13:21.945Z,29.71
2023-06-04T14:18:26.068Z,29.82
2023-06-04T14:23:30.351Z,29.87
2023-06-04T14:28:36.040Z,28.37
2023-06-04T14:33:40.783Z,28.10
2023-06-04T14:38:46.083Z,28.86
2023-06-04T14:43:51.557Z,29.51
2023-06-04T14:48:55.845Z,29.56
2023-06-04T14:53:59.883Z,28.80
2023-06-04T14:59:10.127Z,28.42
2023-06-04T15:04:14.961Z,28.72
2023-06-04T15:09:19.290Z,29.03
2023-06-04T15:14:24.916Z,28.86
2023-06-04T15:19:29.194Z,29.43
2023-06-04T15:24:36.539Z,29.34
2023-06-04T15:29:42.086Z,29.73
2023-06-04T15:34:46.641Z,29.28
2023-06-04T15:39:51.423Z,29.64
2023-06-04T15:44:56.768Z,28.29
2023-06-04T15:50:01.082Z,24.98
2023-06-04T15:55:06.075Z,24.25
2023-06-04T16:00:13.638Z,23.17
2023-06-04T16:05:18.665Z,22.76
2023-06-04T16:10:22.998Z,22.89
2023-06-04T16:15:28.507Z,22.47
2023-06-04T16:20:32.636Z,22.25
2023-06-04T16:25:37.563Z,22.22
2023-06-04T16:30:43.045Z,21.45
2023-06-04T16:35:47.204Z,21.82
2023-06-04T16:40:51.284Z,21.55
2023-06-04T16:45:56.980Z,21.55
2023-06-04T16:51:00.915Z,22.01
2023-06-04T16:56:05.923Z,21.79
2023-06-04T17:01:11.856Z,21.95
2023-06-04T17:06:16.037Z,21.99
2023-06-04T17:11:20.091Z,22.23
2023-06-04T17:16:27.511Z,22.12
2023-06-04T17:21:32.924Z,21.65
2023-06-04T17:26:36.998Z,21.28
2023-06-04T17:31:42.808Z,21.79
2023-06-04T17:36:47.024Z,21.85
2023-06-04T17:41:51.147Z,21.65
2023-06-04T17:46:56.769Z,21.73
2023-06-04T17:52:00.963Z,21.55
2023-06-04T17:57:05.924Z,21.35
2023-06-04T18:02:11.462Z,21.29
2023-06-04T18:07:15.656Z,20.83
2023-06-04T18:12:19.726Z,20.64
2023-06-04T18:17:25.589Z,20.14
2023-06-04T18:22:30.339Z,20.16
2023-06-04T18:27:34.677Z,20.22
2023-06-04T18:32:42.048Z,20.37
2023-06-04T18:37:46.185Z,20.12
2023-06-04T18:42:50.322Z,20.23
2023-06-04T18:47:55.801Z,20.00
2023-06-04T18:53:00.891Z,19.63
2023-06-04T18:58:05.076Z,19.52
2023-06-04T19:03:10.897Z,17.36
2023-06-04T19:08:15.025Z,16.21
2023-06-04T19:13:19.248Z,15.21
2023-06-04T19:18:24.627Z,15.18
2023-06-04T19:23:28.831Z,14.94
2023-06-04T19:28:32.952Z,14.91
2023-06-04T19:33:39.269Z,14.64
2023-06-04T19:38:45.741Z,16.03
2023-06-04T19:43:49.989Z,14.40
2023-06-04T19:48:55.940Z,13.83
2023-06-04T19:54:00.524Z,13.89
2023-06-04T19:59:04.927Z,14.06
2023-06-04T20:04:10.719Z,14.14
2023-06-04T20:09:15.813Z,14.16
2023-06-04T20:14:22.150Z,13.73
2023-06-04T20:19:29.212Z,14.07
2023-06-04T20:24:33.444Z,15.05
2023-06-04T20:29:37.600Z,13.53
2023-06-04T20:34:43.202Z,13.84
2023-06-04T20:39:49.994Z,13.29
2023-06-04T20:44:54.185Z,13.19
2023-06-04T20:49:59.828Z,14.40
2023-06-04T20:55:04.017Z,14.01
2023-06-04T21:00:10.447Z,14.32
2023-06-04T21:05:16.091Z,13.83
2023-06-04T21:10:24.244Z,13.54
2023-06-04T21:15:37.880Z,14.06
2023-06-04T21:20:46.295Z,12.99
2023-06-04T21:25:50.746Z,11.96
2023-06-04T21:30:57.382Z,12.03
2023-06-04T21:36:03.170Z,11.91
2023-06-04T21:41:07.676Z,12.09
2023-06-04T21:46:12.098Z,11.57
2023-06-04T21:51:17.769Z,11.82
2023-06-04T21:56:22.042Z,11.57
2023-06-04T22:01:26.195Z,11.51
2023-06-04T22:06:31.705Z,11.60
2023-06-04T22:11:36.143Z,11.62
2023-06-04T22:16:40.260Z,11.68
2023-06-04T22:21:46.223Z,11.32
2023-06-04T22:26:50.574Z,11.60
2023-06-04T22:31:55.039Z,11.77
2023-06-04T22:37:01.091Z,12.48
2023-06-04T22:42:05.523Z,12.39
2023-06-04T22:47:10.492Z,11.94
2023-06-04T22:52:17.156Z,12.27
2023-06-04T22:57:21.282Z,12.05
2023-06-04T23:02:25.480Z,10.88
2023-06-04T23:07:30.983Z,10.80
2023-06-04T23:12:35.142Z,10.42
2023-06-04T23:17:41.214Z,10.12
2023-06-04T23:22:47.320Z,10.51
2023-06-04T23:27:54.704Z,10.85
2023-06-04T23:32:59.350Z,10.42
2023-06-04T23:38:05.052Z,10.44
2023-06-04T23:43:09.096Z,11.37
2023-06-04T23:48:13.224Z,10.80
2023-06-04T23:53:18.827Z,11.12
2023-06-04T23:58:23.177Z,10.96
